sensor_id;sensor_type;location;lat;lon;timestamp;P1;durP1;ratioP1;P2;durP2;ratioP2
55362;SDS011;41244;49.242;9.060;2023-03-05T00:01:07;44.78;;;20.60;;
55362;SDS011;41244;49.242;9.060;2023-03-05T00:03:35;45.60;;;22.52;;
55362;SDS011;41244;49.242;9.060;2023-03-05T00:06:01;44.08;;;20.48;;
55362;SDS011;41244;49.242;9.060;2023-03-05T00:08:28;51.58;;;22.38;;
55362;SDS011;41244;49.242;9.060;2023-03-05T00:10:58;46.00;;;21.77;;
55362;SDS011;41244;49.242;9.060;2023-03-05T00:13:34;46.75;;;23.00;;
55362;SDS011;41244;49.242;9.060;2023-03-05T00:16:02;46.35;;;22.55;;
55362;SDS011;41244;49.242;9.060;2023-03-05T00:18:34;46.45;;;22.42;;
55362;SDS011;41244;49.242;9.060;2023-03-05T00:21:00;47.42;;;21.08;;
55362;SDS011;41244;49.242;9.060;2023-03-05T00:23:26;44.17;;;21.33;;
55362;SDS011;41244;49.242;9.060;2023-03-05T00:25:52;48.35;;;23.67;;
55362;SDS011;41244;49.242;9.060;2023-03-05T00:28:18;54.58;;;24.80;;
55362;SDS011;41244;49.242;9.060;2023-03-05T00:30:44;47.53;;;22.05;;
55362;SDS011;41244;49.242;9.060;2023-03-05T00:33:10;48.42;;;22.33;;
55362;SDS011;41244;49.242;9.060;2023-03-05T00:35:41;41.80;;;21.58;;
55362;SDS011;41244;49.242;9.060;2023-03-05T00:38:09;50.67;;;23.42;;
55362;SDS011;41244;49.242;9.060;2023-03-05T00:40:36;48.47;;;23.23;;
55362;SDS011;41244;49.242;9.060;2023-03-05T00:43:04;53.25;;;24.10;;
55362;SDS011;41244;49.242;9.060;2023-03-05T00:45:29;46.97;;;24.63;;
55362;SDS011;41244;49.242;9.060;2023-03-05T00:47:56;48.33;;;24.80;;
55362;SDS011;41244;49.242;9.060;2023-03-05T00:50:21;45.70;;;22.23;;
55362;SDS011;41244;49.242;9.060;2023-03-05T00:52:47;54.50;;;23.30;;
55362;SDS011;41244;49.242;9.060;2023-03-05T00:55:13;46.78;;;24.00;;
55362;SDS011;41244;49.242;9.060;2023-03-05T00:57:39;53.40;;;22.95;;
55362;SDS011;41244;49.242;9.060;2023-03-05T01:00:05;48.38;;;22.48;;
55362;SDS011;41244;49.242;9.060;2023-03-05T01:02:32;49.60;;;23.20;;
55362;SDS011;41244;49.242;9.060;2023-03-05T01:04:58;48.47;;;22.85;;
55362;SDS011;41244;49.242;9.060;2023-03-05T01:07:24;43.42;;;21.17;;
55362;SDS011;41244;49.242;9.060;2023-03-05T01:09:49;46.58;;;21.02;;
55362;SDS011;41244;49.242;9.060;2023-03-05T01:12:15;45.70;;;21.30;;
55362;SDS011;41244;49.242;9.060;2023-03-05T01:14:41;46.47;;;22.27;;
55362;SDS011;41244;49.242;9.060;2023-03-05T01:17:07;44.90;;;20.77;;
55362;SDS011;41244;49.242;9.060;2023-03-05T01:19:33;47.38;;;22.10;;
55362;SDS011;41244;49.242;9.060;2023-03-05T01:21:58;51.50;;;21.27;;
55362;SDS011;41244;49.242;9.060;2023-03-05T01:24:24;44.97;;;21.60;;
55362;SDS011;41244;49.242;9.060;2023-03-05T01:26:50;53.15;;;21.35;;
55362;SDS011;41244;49.242;9.060;2023-03-05T01:29:16;43.08;;;20.33;;
55362;SDS011;41244;49.242;9.060;2023-03-05T01:31:42;44.97;;;20.15;;
55362;SDS011;41244;49.242;9.060;2023-03-05T01:34:07;47.33;;;21.23;;
55362;SDS011;41244;49.242;9.060;2023-03-05T01:36:33;46.42;;;20.92;;
55362;SDS011;41244;49.242;9.060;2023-03-05T01:38:59;45.20;;;20.15;;
55362;SDS011;41244;49.242;9.060;2023-03-05T01:41:25;47.05;;;19.85;;
55362;SDS011;41244;49.242;9.060;2023-03-05T01:43:51;44.88;;;19.67;;
55362;SDS011;41244;49.242;9.060;2023-03-05T01:51:38;41.00;;;18.80;;
55362;SDS011;41244;49.242;9.060;2023-03-05T01:54:10;39.90;;;19.10;;
55362;SDS011;41244;49.242;9.060;2023-03-05T01:56:38;41.60;;;18.45;;
55362;SDS011;41244;49.242;9.060;2023-03-05T01:59:05;42.15;;;18.23;;
55362;SDS011;41244;49.242;9.060;2023-03-05T02:01:32;41.55;;;18.23;;
55362;SDS011;41244;49.242;9.060;2023-03-05T02:04:11;38.53;;;18.52;;
55362;SDS011;41244;49.242;9.060;2023-03-05T02:06:40;42.55;;;19.20;;
55362;SDS011;41244;49.242;9.060;2023-03-05T02:09:07;44.47;;;18.98;;
55362;SDS011;41244;49.242;9.060;2023-03-05T02:11:34;44.80;;;19.27;;
55362;SDS011;41244;49.242;9.060;2023-03-05T02:14:00;46.50;;;19.08;;
55362;SDS011;41244;49.242;9.060;2023-03-05T02:16:28;42.25;;;18.63;;
55362;SDS011;41244;49.242;9.060;2023-03-05T02:19:00;45.90;;;19.73;;
55362;SDS011;41244;49.242;9.060;2023-03-05T02:21:43;44.50;;;20.45;;
55362;SDS011;41244;49.242;9.060;2023-03-05T02:24:15;46.50;;;19.10;;
55362;SDS011;41244;49.242;9.060;2023-03-05T02:26:55;40.33;;;18.73;;
55362;SDS011;41244;49.242;9.060;2023-03-05T02:29:21;39.30;;;18.77;;
55362;SDS011;41244;49.242;9.060;2023-03-05T02:31:47;42.97;;;18.48;;
55362;SDS011;41244;49.242;9.060;2023-03-05T02:34:13;42.25;;;18.88;;
55362;SDS011;41244;49.242;9.060;2023-03-05T02:36:39;45.13;;;19.40;;
55362;SDS011;41244;49.242;9.060;2023-03-05T02:39:04;48.42;;;19.50;;
55362;SDS011;41244;49.242;9.060;2023-03-05T02:41:30;46.95;;;19.80;;
55362;SDS011;41244;49.242;9.060;2023-03-05T02:43:56;39.47;;;19.17;;
55362;SDS011;41244;49.242;9.060;2023-03-05T02:46:22;48.88;;;20.52;;
55362;SDS011;41244;49.242;9.060;2023-03-05T02:48:48;40.00;;;19.05;;
55362;SDS011;41244;49.242;9.060;2023-03-05T02:51:14;46.53;;;19.88;;
55362;SDS011;41244;49.242;9.060;2023-03-05T02:53:40;42.97;;;19.98;;
55362;SDS011;41244;49.242;9.060;2023-03-05T02:56:05;40.72;;;18.95;;
55362;SDS011;41244;49.242;9.060;2023-03-05T02:58:31;42.80;;;19.70;;
55362;SDS011;41244;49.242;9.060;2023-03-05T03:00:57;43.78;;;19.15;;
55362;SDS011;41244;49.242;9.060;2023-03-05T03:03:23;43.95;;;20.15;;
55362;SDS011;41244;49.242;9.060;2023-03-05T03:05:48;40.45;;;20.15;;
55362;SDS011;41244;49.242;9.060;2023-03-05T03:08:14;43.90;;;21.33;;
55362;SDS011;41244;49.242;9.060;2023-03-05T03:10:40;45.88;;;20.25;;
55362;SDS011;41244;49.242;9.060;2023-03-05T03:13:06;41.50;;;18.48;;
55362;SDS011;41244;49.242;9.060;2023-03-05T03:15:32;41.30;;;18.70;;
55362;SDS011;41244;49.242;9.060;2023-03-05T03:17:58;45.88;;;19.20;;
55362;SDS011;41244;49.242;9.060;2023-03-05T03:20:24;39.90;;;19.60;;
55362;SDS011;41244;49.242;9.060;2023-03-05T03:22:50;41.28;;;18.90;;
55362;SDS011;41244;49.242;9.060;2023-03-05T03:25:17;39.22;;;18.20;;
55362;SDS011;41244;49.242;9.060;2023-03-05T03:27:45;42.88;;;19.60;;
55362;SDS011;41244;49.242;9.060;2023-03-05T03:30:11;47.95;;;18.60;;
55362;SDS011;41244;49.242;9.060;2023-03-05T03:32:38;40.45;;;19.17;;
55362;SDS011;41244;49.242;9.060;2023-03-05T03:35:04;41.05;;;18.08;;
55362;SDS011;41244;49.242;9.060;2023-03-05T03:37:31;38.38;;;17.80;;
55362;SDS011;41244;49.242;9.060;2023-03-05T03:39:57;46.25;;;18.80;;
55362;SDS011;41244;49.242;9.060;2023-03-05T03:42:23;40.13;;;18.88;;
55362;SDS011;41244;49.242;9.060;2023-03-05T03:44:49;41.78;;;18.30;;
55362;SDS011;41244;49.242;9.060;2023-03-05T03:47:15;38.58;;;18.55;;
55362;SDS011;41244;49.242;9.060;2023-03-05T03:49:41;37.60;;;18.33;;
55362;SDS011;41244;49.242;9.060;2023-03-05T03:52:07;36.15;;;18.42;;
55362;SDS011;41244;49.242;9.060;2023-03-05T03:54:33;40.30;;;18.35;;
55362;SDS011;41244;49.242;9.060;2023-03-05T03:56:59;42.33;;;19.05;;
55362;SDS011;41244;49.242;9.060;2023-03-05T03:59:25;38.90;;;18.33;;
55362;SDS011;41244;49.242;9.060;2023-03-05T04:01:50;36.08;;;18.95;;
55362;SDS011;41244;49.242;9.060;2023-03-05T04:04:16;40.08;;;19.00;;
55362;SDS011;41244;49.242;9.060;2023-03-05T04:06:42;44.67;;;20.05;;
55362;SDS011;41244;49.242;9.060;2023-03-05T04:09:08;38.83;;;17.67;;
55362;SDS011;41244;49.242;9.060;2023-03-05T04:11:34;40.90;;;20.63;;
55362;SDS011;41244;49.242;9.060;2023-03-05T04:14:01;43.58;;;19.00;;
55362;SDS011;41244;49.242;9.060;2023-03-05T04:16:28;41.42;;;19.33;;
55362;SDS011;41244;49.242;9.060;2023-03-05T04:18:53;41.08;;;19.05;;
55362;SDS011;41244;49.242;9.060;2023-03-05T04:21:19;38.03;;;18.48;;
55362;SDS011;41244;49.242;9.060;2023-03-05T04:23:45;41.40;;;20.05;;
55362;SDS011;41244;49.242;9.060;2023-03-05T04:26:11;35.45;;;18.55;;
55362;SDS011;41244;49.242;9.060;2023-03-05T04:28:37;42.80;;;18.88;;
55362;SDS011;41244;49.242;9.060;2023-03-05T04:31:03;44.03;;;20.27;;
55362;SDS011;41244;49.242;9.060;2023-03-05T04:33:29;50.42;;;21.88;;
55362;SDS011;41244;49.242;9.060;2023-03-05T04:35:54;47.53;;;25.40;;
55362;SDS011;41244;49.242;9.060;2023-03-05T04:38:20;58.13;;;33.17;;
55362;SDS011;41244;49.242;9.060;2023-03-05T04:40:46;48.83;;;27.95;;
55362;SDS011;41244;49.242;9.060;2023-03-05T04:43:12;48.72;;;26.77;;
55362;SDS011;41244;49.242;9.060;2023-03-05T04:45:38;47.15;;;24.00;;
55362;SDS011;41244;49.242;9.060;2023-03-05T04:48:05;44.55;;;23.00;;
55362;SDS011;41244;49.242;9.060;2023-03-05T04:50:32;45.28;;;20.13;;
55362;SDS011;41244;49.242;9.060;2023-03-05T04:52:57;41.70;;;20.23;;
55362;SDS011;41244;49.242;9.060;2023-03-05T04:55:24;41.85;;;20.83;;
55362;SDS011;41244;49.242;9.060;2023-03-05T04:57:51;45.50;;;20.75;;
55362;SDS011;41244;49.242;9.060;2023-03-05T05:00:17;41.03;;;20.00;;
55362;SDS011;41244;49.242;9.060;2023-03-05T05:02:43;42.72;;;20.65;;
55362;SDS011;41244;49.242;9.060;2023-03-05T05:05:13;45.03;;;19.90;;
55362;SDS011;41244;49.242;9.060;2023-03-05T05:07:44;40.03;;;19.90;;
55362;SDS011;41244;49.242;9.060;2023-03-05T05:10:10;45.92;;;21.88;;
55362;SDS011;41244;49.242;9.060;2023-03-05T05:12:38;49.55;;;20.40;;
55362;SDS011;41244;49.242;9.060;2023-03-05T05:15:03;50.65;;;21.60;;
55362;SDS011;41244;49.242;9.060;2023-03-05T05:17:31;47.95;;;20.65;;
55362;SDS011;41244;49.242;9.060;2023-03-05T05:19:58;42.55;;;21.00;;
55362;SDS011;41244;49.242;9.060;2023-03-05T05:22:25;46.20;;;20.55;;
55362;SDS011;41244;49.242;9.060;2023-03-05T05:24:52;40.28;;;20.65;;
55362;SDS011;41244;49.242;9.060;2023-03-05T05:27:19;43.38;;;19.92;;
55362;SDS011;41244;49.242;9.060;2023-03-05T05:29:45;42.42;;;19.88;;
55362;SDS011;41244;49.242;9.060;2023-03-05T05:32:14;45.83;;;21.25;;
55362;SDS011;41244;49.242;9.060;2023-03-05T05:34:44;45.30;;;20.50;;
55362;SDS011;41244;49.242;9.060;2023-03-05T05:37:10;45.97;;;21.77;;
55362;SDS011;41244;49.242;9.060;2023-03-05T05:39:35;48.03;;;21.50;;
55362;SDS011;41244;49.242;9.060;2023-03-05T05:42:01;44.40;;;21.00;;
55362;SDS011;41244;49.242;9.060;2023-03-05T05:44:27;43.55;;;21.02;;
55362;SDS011;41244;49.242;9.060;2023-03-05T05:46:53;44.05;;;21.20;;
55362;SDS011;41244;49.242;9.060;2023-03-05T05:49:19;43.60;;;21.13;;
55362;SDS011;41244;49.242;9.060;2023-03-05T05:51:45;44.45;;;20.17;;
55362;SDS011;41244;49.242;9.060;2023-03-05T05:54:14;44.92;;;21.00;;
55362;SDS011;41244;49.242;9.060;2023-03-05T05:56:40;40.40;;;20.77;;
55362;SDS011;41244;49.242;9.060;2023-03-05T05:59:06;45.30;;;20.92;;
55362;SDS011;41244;49.242;9.060;2023-03-05T06:01:33;43.33;;;20.27;;
55362;SDS011;41244;49.242;9.060;2023-03-05T06:03:59;42.20;;;20.50;;
55362;SDS011;41244;49.242;9.060;2023-03-05T06:06:26;51.33;;;21.88;;
55362;SDS011;41244;49.242;9.060;2023-03-05T06:08:53;41.90;;;21.08;;
55362;SDS011;41244;49.242;9.060;2023-03-05T06:11:20;42.22;;;21.15;;
55362;SDS011;41244;49.242;9.060;2023-03-05T06:13:46;41.97;;;21.83;;
55362;SDS011;41244;49.242;9.060;2023-03-05T06:16:14;44.78;;;20.33;;
55362;SDS011;41244;49.242;9.060;2023-03-05T06:18:42;43.17;;;21.10;;
55362;SDS011;41244;49.242;9.060;2023-03-05T06:21:10;42.58;;;21.10;;
55362;SDS011;41244;49.242;9.060;2023-03-05T06:23:38;45.42;;;23.15;;
55362;SDS011;41244;49.242;9.060;2023-03-05T06:26:05;38.67;;;20.60;;
55362;SDS011;41244;49.242;9.060;2023-03-05T06:28:32;37.90;;;19.92;;
55362;SDS011;41244;49.242;9.060;2023-03-05T06:33:46;47.80;;;22.10;;
55362;SDS011;41244;49.242;9.060;2023-03-05T06:36:13;44.78;;;22.85;;
55362;SDS011;41244;49.242;9.060;2023-03-05T06:38:41;44.25;;;21.67;;
55362;SDS011;41244;49.242;9.060;2023-03-05T06:41:08;44.83;;;22.15;;
55362;SDS011;41244;49.242;9.060;2023-03-05T06:43:37;48.60;;;21.00;;
55362;SDS011;41244;49.242;9.060;2023-03-05T06:46:06;44.85;;;21.73;;
55362;SDS011;41244;49.242;9.060;2023-03-05T06:48:33;50.50;;;22.08;;
55362;SDS011;41244;49.242;9.060;2023-03-05T06:50:59;49.28;;;21.60;;
55362;SDS011;41244;49.242;9.060;2023-03-05T06:53:25;43.40;;;23.08;;
55362;SDS011;41244;49.242;9.060;2023-03-05T06:55:51;48.55;;;22.55;;
55362;SDS011;41244;49.242;9.060;2023-03-05T06:58:18;48.58;;;22.67;;
55362;SDS011;41244;49.242;9.060;2023-03-05T07:00:44;45.75;;;20.73;;
55362;SDS011;41244;49.242;9.060;2023-03-05T07:03:10;45.50;;;21.98;;
55362;SDS011;41244;49.242;9.060;2023-03-05T07:05:37;45.85;;;20.77;;
55362;SDS011;41244;49.242;9.060;2023-03-05T07:08:04;42.63;;;21.95;;
55362;SDS011;41244;49.242;9.060;2023-03-05T07:10:29;42.17;;;20.05;;
55362;SDS011;41244;49.242;9.060;2023-03-05T07:12:55;45.63;;;20.80;;
55362;SDS011;41244;49.242;9.060;2023-03-05T07:15:21;47.03;;;24.00;;
55362;SDS011;41244;49.242;9.060;2023-03-05T07:17:47;57.97;;;28.98;;
55362;SDS011;41244;49.242;9.060;2023-03-05T07:20:13;51.85;;;25.13;;
55362;SDS011;41244;49.242;9.060;2023-03-05T07:22:39;45.72;;;23.83;;
55362;SDS011;41244;49.242;9.060;2023-03-05T07:25:05;47.35;;;22.58;;
55362;SDS011;41244;49.242;9.060;2023-03-05T07:27:35;48.03;;;27.27;;
55362;SDS011;41244;49.242;9.060;2023-03-05T07:30:02;44.15;;;23.65;;
55362;SDS011;41244;49.242;9.060;2023-03-05T07:32:28;52.78;;;27.23;;
55362;SDS011;41244;49.242;9.060;2023-03-05T07:34:54;42.90;;;23.83;;
55362;SDS011;41244;49.242;9.060;2023-03-05T07:37:20;48.38;;;26.70;;
55362;SDS011;41244;49.242;9.060;2023-03-05T07:39:46;51.63;;;23.35;;
55362;SDS011;41244;49.242;9.060;2023-03-05T07:42:11;48.85;;;23.08;;
55362;SDS011;41244;49.242;9.060;2023-03-05T07:44:37;42.58;;;23.08;;
55362;SDS011;41244;49.242;9.060;2023-03-05T07:47:03;51.45;;;23.70;;
55362;SDS011;41244;49.242;9.060;2023-03-05T07:49:29;47.88;;;22.75;;
55362;SDS011;41244;49.242;9.060;2023-03-05T07:51:55;44.88;;;22.20;;
55362;SDS011;41244;49.242;9.060;2023-03-05T07:54:21;43.08;;;21.80;;
55362;SDS011;41244;49.242;9.060;2023-03-05T07:56:47;45.85;;;21.58;;
55362;SDS011;41244;49.242;9.060;2023-03-05T07:59:12;44.10;;;22.05;;
55362;SDS011;41244;49.242;9.060;2023-03-05T08:01:38;44.30;;;20.52;;
55362;SDS011;41244;49.242;9.060;2023-03-05T08:04:04;45.30;;;20.60;;
55362;SDS011;41244;49.242;9.060;2023-03-05T08:06:31;46.88;;;21.38;;
55362;SDS011;41244;49.242;9.060;2023-03-05T08:08:57;43.00;;;22.00;;
55362;SDS011;41244;49.242;9.060;2023-03-05T08:11:23;40.08;;;20.58;;
55362;SDS011;41244;49.242;9.060;2023-03-05T08:13:50;45.65;;;22.75;;
55362;SDS011;41244;49.242;9.060;2023-03-05T08:16:19;43.42;;;22.35;;
55362;SDS011;41244;49.242;9.060;2023-03-05T08:18:46;46.50;;;23.42;;
55362;SDS011;41244;49.242;9.060;2023-03-05T08:21:14;51.00;;;24.27;;
55362;SDS011;41244;49.242;9.060;2023-03-05T08:23:55;46.28;;;23.92;;
55362;SDS011;41244;49.242;9.060;2023-03-05T08:26:23;43.47;;;20.67;;
55362;SDS011;41244;49.242;9.060;2023-03-05T08:28:51;46.25;;;22.73;;
55362;SDS011;41244;49.242;9.060;2023-03-05T08:31:18;45.42;;;23.15;;
55362;SDS011;41244;49.242;9.060;2023-03-05T08:33:46;47.13;;;21.90;;
55362;SDS011;41244;49.242;9.060;2023-03-05T08:36:13;43.17;;;20.38;;
55362;SDS011;41244;49.242;9.060;2023-03-05T08:38:39;45.45;;;20.80;;
55362;SDS011;41244;49.242;9.060;2023-03-05T08:41:06;45.80;;;22.10;;
55362;SDS011;41244;49.242;9.060;2023-03-05T08:43:32;42.60;;;21.23;;
55362;SDS011;41244;49.242;9.060;2023-03-05T08:45:58;43.38;;;21.23;;
55362;SDS011;41244;49.242;9.060;2023-03-05T08:48:25;45.45;;;22.67;;
55362;SDS011;41244;49.242;9.060;2023-03-05T08:50:51;39.42;;;20.88;;
55362;SDS011;41244;49.242;9.060;2023-03-05T08:53:18;40.40;;;21.23;;
55362;SDS011;41244;49.242;9.060;2023-03-05T08:55:52;45.60;;;21.73;;
55362;SDS011;41244;49.242;9.060;2023-03-05T08:58:19;49.63;;;21.35;;
55362;SDS011;41244;49.242;9.060;2023-03-05T09:00:45;45.22;;;23.65;;
55362;SDS011;41244;49.242;9.060;2023-03-05T09:03:10;45.13;;;22.15;;
55362;SDS011;41244;49.242;9.060;2023-03-05T09:05:36;46.92;;;23.67;;
55362;SDS011;41244;49.242;9.060;2023-03-05T09:08:02;42.30;;;22.23;;
55362;SDS011;41244;49.242;9.060;2023-03-05T09:10:28;46.65;;;21.15;;
55362;SDS011;41244;49.242;9.060;2023-03-05T09:12:53;42.88;;;20.42;;
55362;SDS011;41244;49.242;9.060;2023-03-05T09:15:19;51.53;;;22.30;;
55362;SDS011;41244;49.242;9.060;2023-03-05T09:17:45;45.45;;;22.65;;
55362;SDS011;41244;49.242;9.060;2023-03-05T09:20:11;45.60;;;21.38;;
55362;SDS011;41244;49.242;9.060;2023-03-05T09:22:38;49.05;;;23.63;;
55362;SDS011;41244;49.242;9.060;2023-03-05T09:25:04;48.70;;;23.67;;
55362;SDS011;41244;49.242;9.060;2023-03-05T09:27:35;45.92;;;24.05;;
55362;SDS011;41244;49.242;9.060;2023-03-05T09:30:02;43.60;;;22.17;;
55362;SDS011;41244;49.242;9.060;2023-03-05T09:32:29;41.22;;;23.10;;
55362;SDS011;41244;49.242;9.060;2023-03-05T09:34:55;46.88;;;22.33;;
55362;SDS011;41244;49.242;9.060;2023-03-05T09:37:22;44.75;;;22.52;;
55362;SDS011;41244;49.242;9.060;2023-03-05T09:39:48;44.47;;;24.70;;
55362;SDS011;41244;49.242;9.060;2023-03-05T09:45:24;41.97;;;23.15;;
55362;SDS011;41244;49.242;9.060;2023-03-05T09:51:02;40.70;;;22.38;;
55362;SDS011;41244;49.242;9.060;2023-03-05T09:56:23;42.63;;;21.55;;
55362;SDS011;41244;49.242;9.060;2023-03-05T09:58:54;31.75;;;19.65;;
55362;SDS011;41244;49.242;9.060;2023-03-05T10:01:28;34.35;;;19.85;;
55362;SDS011;41244;49.242;9.060;2023-03-05T10:06:55;33.60;;;19.50;;
55362;SDS011;41244;49.242;9.060;2023-03-05T10:15:55;34.42;;;18.98;;
55362;SDS011;41244;49.242;9.060;2023-03-05T10:21:30;31.23;;;19.17;;
55362;SDS011;41244;49.242;9.060;2023-03-05T10:24:29;30.92;;;17.77;;
55362;SDS011;41244;49.242;9.060;2023-03-05T10:27:18;42.58;;;25.08;;
55362;SDS011;41244;49.242;9.060;2023-03-05T10:30:32;26.40;;;16.75;;
55362;SDS011;41244;49.242;9.060;2023-03-05T10:39:46;24.98;;;15.57;;
55362;SDS011;41244;49.242;9.060;2023-03-05T10:45:55;28.70;;;15.43;;
55362;SDS011;41244;49.242;9.060;2023-03-05T10:48:31;23.10;;;15.07;;
55362;SDS011;41244;49.242;9.060;2023-03-05T10:53:51;25.85;;;13.95;;
55362;SDS011;41244;49.242;9.060;2023-03-05T10:56:24;24.05;;;14.25;;
55362;SDS011;41244;49.242;9.060;2023-03-05T10:58:52;27.73;;;15.13;;
55362;SDS011;41244;49.242;9.060;2023-03-05T11:01:26;26.83;;;15.63;;
55362;SDS011;41244;49.242;9.060;2023-03-05T11:04:03;32.65;;;17.52;;
55362;SDS011;41244;49.242;9.060;2023-03-05T11:06:35;29.65;;;15.55;;
55362;SDS011;41244;49.242;9.060;2023-03-05T11:09:17;25.33;;;14.50;;
55362;SDS011;41244;49.242;9.060;2023-03-05T11:14:31;27.05;;;15.93;;
55362;SDS011;41244;49.242;9.060;2023-03-05T11:16:58;33.35;;;17.27;;
55362;SDS011;41244;49.242;9.060;2023-03-05T11:19:26;26.15;;;16.30;;
55362;SDS011;41244;49.242;9.060;2023-03-05T11:24:38;27.15;;;16.05;;
55362;SDS011;41244;49.242;9.060;2023-03-05T11:30:03;30.63;;;17.35;;
55362;SDS011;41244;49.242;9.060;2023-03-05T11:32:49;29.52;;;16.30;;
55362;SDS011;41244;49.242;9.060;2023-03-05T11:35:40;26.67;;;15.60;;
55362;SDS011;41244;49.242;9.060;2023-03-05T11:38:18;26.25;;;15.25;;
55362;SDS011;41244;49.242;9.060;2023-03-05T11:40:44;32.58;;;17.75;;
55362;SDS011;41244;49.242;9.060;2023-03-05T11:43:14;44.88;;;17.95;;
55362;SDS011;41244;49.242;9.060;2023-03-05T11:45:43;29.77;;;15.70;;
55362;SDS011;41244;49.242;9.060;2023-03-05T11:48:52;26.48;;;16.27;;
55362;SDS011;41244;49.242;9.060;2023-03-05T11:51:01;28.92;;;16.77;;
55362;SDS011;41244;49.242;9.060;2023-03-05T11:53:32;25.60;;;14.93;;
55362;SDS011;41244;49.242;9.060;2023-03-05T11:56:04;23.25;;;14.85;;
55362;SDS011;41244;49.242;9.060;2023-03-05T12:01:31;34.33;;;17.17;;
55362;SDS011;41244;49.242;9.060;2023-03-05T12:04:00;32.75;;;14.98;;
55362;SDS011;41244;49.242;9.060;2023-03-05T12:06:34;24.20;;;13.80;;
55362;SDS011;41244;49.242;9.060;2023-03-05T12:12:00;24.80;;;13.07;;
55362;SDS011;41244;49.242;9.060;2023-03-05T12:15:00;23.70;;;12.18;;
55362;SDS011;41244;49.242;9.060;2023-03-05T12:23:11;20.90;;;12.63;;
55362;SDS011;41244;49.242;9.060;2023-03-05T12:25:57;32.97;;;14.80;;
55362;SDS011;41244;49.242;9.060;2023-03-05T12:30:57;23.23;;;13.40;;
55362;SDS011;41244;49.242;9.060;2023-03-05T12:33:46;26.77;;;15.48;;
55362;SDS011;41244;49.242;9.060;2023-03-05T12:38:50;24.45;;;13.15;;
55362;SDS011;41244;49.242;9.060;2023-03-05T12:44:07;19.05;;;11.82;;
55362;SDS011;41244;49.242;9.060;2023-03-05T12:49:09;19.92;;;13.18;;
55362;SDS011;41244;49.242;9.060;2023-03-05T12:51:47;20.73;;;13.52;;
55362;SDS011;41244;49.242;9.060;2023-03-05T12:56:49;19.40;;;12.60;;
55362;SDS011;41244;49.242;9.060;2023-03-05T12:59:18;20.60;;;13.25;;
55362;SDS011;41244;49.242;9.060;2023-03-05T13:04:21;17.95;;;12.15;;
55362;SDS011;41244;49.242;9.060;2023-03-05T13:07:01;20.95;;;12.98;;
55362;SDS011;41244;49.242;9.060;2023-03-05T13:09:30;36.25;;;29.50;;
55362;SDS011;41244;49.242;9.060;2023-03-05T13:12:00;31.17;;;23.83;;
55362;SDS011;41244;49.242;9.060;2023-03-05T13:14:30;23.33;;;16.55;;
55362;SDS011;41244;49.242;9.060;2023-03-05T13:19:59;16.35;;;11.82;;
55362;SDS011;41244;49.242;9.060;2023-03-05T13:22:30;18.20;;;12.77;;
55362;SDS011;41244;49.242;9.060;2023-03-05T13:25:03;26.08;;;15.02;;
55362;SDS011;41244;49.242;9.060;2023-03-05T13:27:29;19.75;;;13.25;;
55362;SDS011;41244;49.242;9.060;2023-03-05T13:29:58;17.42;;;10.68;;
55362;SDS011;41244;49.242;9.060;2023-03-05T13:32:25;28.27;;;16.98;;
55362;SDS011;41244;49.242;9.060;2023-03-05T13:34:54;20.65;;;12.63;;
55362;SDS011;41244;49.242;9.060;2023-03-05T13:37:26;25.63;;;14.40;;
55362;SDS011;41244;49.242;9.060;2023-03-05T13:39:56;18.60;;;9.98;;
55362;SDS011;41244;49.242;9.060;2023-03-05T13:42:29;13.40;;;9.32;;
55362;SDS011;41244;49.242;9.060;2023-03-05T13:45:01;12.32;;;8.75;;
55362;SDS011;41244;49.242;9.060;2023-03-05T13:47:50;11.98;;;8.15;;
55362;SDS011;41244;49.242;9.060;2023-03-05T13:50:29;13.05;;;8.30;;
55362;SDS011;41244;49.242;9.060;2023-03-05T13:53:13;20.05;;;9.93;;
55362;SDS011;41244;49.242;9.060;2023-03-05T13:55:43;14.27;;;9.07;;
55362;SDS011;41244;49.242;9.060;2023-03-05T14:01:12;16.25;;;8.05;;
55362;SDS011;41244;49.242;9.060;2023-03-05T14:06:45;11.20;;;6.82;;
55362;SDS011;41244;49.242;9.060;2023-03-05T14:09:24;12.52;;;7.50;;
55362;SDS011;41244;49.242;9.060;2023-03-05T14:12:03;11.77;;;7.03;;
55362;SDS011;41244;49.242;9.060;2023-03-05T14:14:44;12.85;;;7.75;;
55362;SDS011;41244;49.242;9.060;2023-03-05T14:17:29;13.15;;;7.97;;
55362;SDS011;41244;49.242;9.060;2023-03-05T14:22:55;17.35;;;10.13;;
55362;SDS011;41244;49.242;9.060;2023-03-05T14:25:31;18.60;;;11.95;;
55362;SDS011;41244;49.242;9.060;2023-03-05T14:28:05;12.35;;;7.40;;
55362;SDS011;41244;49.242;9.060;2023-03-05T14:30:47;14.55;;;9.00;;
55362;SDS011;41244;49.242;9.060;2023-03-05T14:33:22;13.48;;;8.40;;
55362;SDS011;41244;49.242;9.060;2023-03-05T14:35:51;13.27;;;9.60;;
55362;SDS011;41244;49.242;9.060;2023-03-05T14:38:19;12.40;;;8.02;;
55362;SDS011;41244;49.242;9.060;2023-03-05T14:43:17;10.77;;;6.32;;
55362;SDS011;41244;49.242;9.060;2023-03-05T14:45:43;10.57;;;7.60;;
55362;SDS011;41244;49.242;9.060;2023-03-05T14:48:10;11.02;;;6.47;;
55362;SDS011;41244;49.242;9.060;2023-03-05T14:53:21;11.52;;;6.82;;
55362;SDS011;41244;49.242;9.060;2023-03-05T14:55:52;12.70;;;6.83;;
55362;SDS011;41244;49.242;9.060;2023-03-05T14:58:21;19.92;;;11.45;;
55362;SDS011;41244;49.242;9.060;2023-03-05T15:00:50;12.10;;;6.68;;
55362;SDS011;41244;49.242;9.060;2023-03-05T15:03:17;8.88;;;6.47;;
55362;SDS011;41244;49.242;9.060;2023-03-05T15:05:45;8.98;;;5.88;;
55362;SDS011;41244;49.242;9.060;2023-03-05T15:08:15;11.20;;;5.68;;
55362;SDS011;41244;49.242;9.060;2023-03-05T15:10:53;8.82;;;6.00;;
55362;SDS011;41244;49.242;9.060;2023-03-05T15:13:19;10.02;;;6.30;;
55362;SDS011;41244;49.242;9.060;2023-03-05T15:15:46;9.70;;;6.25;;
55362;SDS011;41244;49.242;9.060;2023-03-05T15:18:19;10.13;;;6.35;;
55362;SDS011;41244;49.242;9.060;2023-03-05T15:20:46;10.38;;;6.35;;
55362;SDS011;41244;49.242;9.060;2023-03-05T15:23:13;12.40;;;8.00;;
55362;SDS011;41244;49.242;9.060;2023-03-05T15:25:39;11.85;;;7.28;;
55362;SDS011;41244;49.242;9.060;2023-03-05T15:28:05;11.82;;;7.05;;
55362;SDS011;41244;49.242;9.060;2023-03-05T15:30:33;15.75;;;11.25;;
55362;SDS011;41244;49.242;9.060;2023-03-05T15:33:06;12.48;;;8.55;;
55362;SDS011;41244;49.242;9.060;2023-03-05T15:35:35;17.73;;;11.45;;
55362;SDS011;41244;49.242;9.060;2023-03-05T15:38:01;28.00;;;16.45;;
55362;SDS011;41244;49.242;9.060;2023-03-05T15:40:27;34.42;;;17.70;;
55362;SDS011;41244;49.242;9.060;2023-03-05T15:42:54;56.33;;;28.55;;
55362;SDS011;41244;49.242;9.060;2023-03-05T15:45:20;47.30;;;23.50;;
55362;SDS011;41244;49.242;9.060;2023-03-05T15:47:47;31.75;;;17.10;;
55362;SDS011;41244;49.242;9.060;2023-03-05T15:50:14;46.65;;;21.98;;
55362;SDS011;41244;49.242;9.060;2023-03-05T15:52:40;24.70;;;13.60;;
55362;SDS011;41244;49.242;9.060;2023-03-05T15:55:06;34.63;;;18.83;;
55362;SDS011;41244;49.242;9.060;2023-03-05T15:57:35;50.58;;;27.98;;
55362;SDS011;41244;49.242;9.060;2023-03-05T16:00:05;48.42;;;26.55;;
55362;SDS011;41244;49.242;9.060;2023-03-05T16:02:33;32.60;;;18.70;;
55362;SDS011;41244;49.242;9.060;2023-03-05T16:04:59;45.17;;;26.70;;
55362;SDS011;41244;49.242;9.060;2023-03-05T16:07:25;26.75;;;14.05;;